This is the latest recevied weather packets stored in our database for station/object KQ4WWD. If no packets are shown the sender has not sent any weather packets the latest 10 day(s).
| Time | Temp. | Humidity | Pressure | Rain* | Wind** | Luminosity | Snow |
|---|---|---|---|---|---|---|---|
| 1788537314 | 31.67° C | 76% | 1016.2 hPa | 0 mm | - | 755 W/m² | - |
| 1788537014 | 32.78° C | 74% | 1015.8 hPa | 0 mm | - | 153 W/m² | - |
| 1788536708 | 32.78° C | 72% | 1015.9 hPa | 0 mm | - | 159 W/m² | - |
| 1788536403 | 32.78° C | 72% | 1016.1 hPa | 0 mm | - | 822 W/m² | - |
| 1788536097 | 32.78° C | 73% | 1015.9 hPa | 0 mm | - | 168 W/m² | - |
| 1788535794 | 32.78° C | 74% | 1015.8 hPa | 0 mm | - | 436 W/m² | - |
| 1788535489 | 33.33° C | 71% | 1015.7 hPa | 0 mm | - | 419 W/m² | - |
| 1788535220 | 32.78° C | 71% | 1015.8 hPa | 0 mm | - | 776 W/m² | - |
| 1788534885 | 32.78° C | 74% | 1015.6 hPa | 0 mm | - | 763 W/m² | - |
| 1788534585 | 31.67° C | 76% | 1015.6 hPa | 0 mm | - | 759 W/m² | - |
| 1788534280 | 31.67° C | 77% | 1015.4 hPa | 0 mm | - | 725 W/m² | - |
| 1788533978 | 32.22° C | 75% | 1015.3 hPa | 0 mm | - | 737 W/m² | - |
| 1788533674 | 32.22° C | 76% | 1015.4 hPa | 0 mm | - | 721 W/m² | - |
| 1788533369 | 31.67° C | 77% | 1015.3 hPa | 0 mm | - | 724 W/m² | - |
| 1788533065 | 31.67° C | 77% | 1015.3 hPa | 0 mm | - | 715 W/m² | - |
| 1788532760 | 31.11° C | 80% | 1015.3 hPa | 0 mm | - | 546 W/m² | - |
| 1788532457 | 31.11° C | 79% | 1015.3 hPa | 0 mm | - | 622 W/m² | - |
| 1788532175 | 31.67° C | 80% | 1015.1 hPa | 0 mm | - | 586 W/m² | - |
| 1788531849 | 31.67° C | 79% | 1015.6 hPa | 0 mm | - | 499 W/m² | - |
| 1788531549 | 31.11° C | 80% | 1015.3 hPa | 0 mm | - | 543 W/m² | - |
| 1788531245 | 31.11° C | 81% | 1015.4 hPa | 0 mm | - | 531 W/m² | - |
| 1788530941 | 30.56° C | 83% | 1015.3 hPa | 0 mm | - | 530 W/m² | - |
| 1788530645 | 30.56° C | 81% | 1015.6 hPa | 0 mm | - | 533 W/m² | - |
| 1788530340 | 30.56° C | 82% | 1015.5 hPa | 0 mm | - | 494 W/m² | - |
| 1788530035 | 30° C | 83% | 1015.4 hPa | 0 mm | - | 456 W/m² | - |
* Rain latest hour (hover to see other rain measurements)
** Current wind speed in m/s (hover to see current wind gust speed)